Time;durP1;ratioP1;P1;durP2;ratioP2;P2;SDS_P1;SDS_P2;PMS_P1;PMS_P2;Temp;Humidity;BMP_temperature;BMP_pressure;BME280_temperature;BME280_humidity;BME280_pressure;Samples;Min_cycle;Max_cycle;Signal;HPM_P1;HPM_P2
2021/11/15 00:00:51;;;;;;;28.58;15.32;;;8.20;99.90;;;;;;5091194;28;20020;-66
2021/11/15 00:03:18;;;;;;;28.27;14.98;;;8.20;99.90;;;;;;5091285;28;20040;-67
2021/11/15 00:05:44;;;;;;;37.33;15.43;;;8.20;99.90;;;;;;5091196;28;20036;-66
2021/11/15 00:08:10;;;;;;;26.38;14.60;;;8.20;99.90;;;;;;5090884;28;20099;-66
2021/11/15 00:10:35;;;;;;;28.42;15.23;;;8.20;99.90;;;;;;5091219;28;20056;-67
2021/11/15 00:13:02;;;;;;;28.77;15.55;;;8.10;99.90;;;;;;5090018;28;20028;-66
2021/11/15 00:15:29;;;;;;;27.88;14.63;;;8.00;99.90;;;;;;5090582;28;20485;-66
2021/11/15 00:17:56;;;;;;;27.58;15.50;;;8.10;99.90;;;;;;5089058;28;20024;-66
2021/11/15 00:20:23;;;;;;;27.10;14.73;;;8.10;99.90;;;;;;5090854;28;20036;-66
2021/11/15 00:22:49;;;;;;;29.25;15.18;;;8.10;99.90;;;;;;5090620;28;20028;-66
2021/11/15 00:25:15;;;;;;;29.95;14.93;;;8.10;99.90;;;;;;5089789;28;20036;-66
2021/11/15 00:27:41;;;;;;;26.60;15.18;;;8.00;99.90;;;;;;5090833;28;20028;-66
2021/11/15 00:30:08;;;;;;;27.02;15.40;;;8.10;99.90;;;;;;5088410;28;20028;-66
2021/11/15 00:32:35;;;;;;;28.95;14.43;;;8.10;99.90;;;;;;5090736;28;20034;-67
2021/11/15 00:35:01;;;;;;;27.92;15.35;;;8.10;99.90;;;;;;5089609;28;20058;-66
2021/11/15 00:37:26;;;;;;;24.15;14.52;;;8.10;99.90;;;;;;5090680;28;20551;-66
2021/11/15 00:39:52;;;;;;;26.60;14.02;;;8.00;99.90;;;;;;5089773;28;20024;-66
2021/11/15 00:42:18;;;;;;;23.05;13.05;;;8.00;99.90;;;;;;5090806;28;20027;-67
2021/11/15 00:44:44;;;;;;;25.52;14.30;;;7.90;99.90;;;;;;5089739;28;20079;-67
2021/11/15 00:47:10;;;;;;;28.42;14.20;;;8.00;99.90;;;;;;5088542;28;20030;-66
2021/11/15 00:49:36;;;;;;;28.48;14.40;;;8.00;99.90;;;;;;5089898;28;20099;-66
2021/11/15 00:52:03;;;;;;;24.50;14.35;;;7.90;99.90;;;;;;5089873;28;20097;-66
2021/11/15 00:54:29;;;;;;;22.83;13.70;;;7.90;99.90;;;;;;5090563;28;20119;-67
2021/11/15 00:56:54;;;;;;;22.75;13.57;;;8.10;99.90;;;;;;5089152;28;20099;-66
2021/11/15 00:59:20;;;;;;;23.52;14.50;;;8.00;99.90;;;;;;5090655;28;20031;-67
2021/11/15 01:01:46;;;;;;;23.40;14.20;;;8.00;99.90;;;;;;5090892;28;20081;-66
2021/11/15 01:04:12;;;;;;;26.15;13.55;;;8.00;99.90;;;;;;5090056;28;20032;-66
2021/11/15 01:06:38;;;;;;;24.13;13.38;;;8.00;99.90;;;;;;5087692;28;20040;-67
2021/11/15 01:09:04;;;;;;;24.40;13.00;;;8.00;99.90;;;;;;5089552;28;20024;-66
2021/11/15 01:11:30;;;;;;;26.80;14.13;;;8.00;99.90;;;;;;5089871;28;20036;-66
2021/11/15 01:13:56;;;;;;;22.23;13.52;;;8.00;99.90;;;;;;5089667;28;20358;-66
2021/11/15 01:16:22;;;;;;;20.05;12.48;;;8.00;99.90;;;;;;5089420;28;20043;-66
2021/11/15 01:18:54;;;;;;;20.48;12.32;;;8.00;99.90;;;;;;5087602;28;20527;-66
2021/11/15 01:21:25;;;;;;;23.30;12.45;;;8.00;99.90;;;;;;5085492;28;20020;-66
2021/11/15 01:23:51;;;;;;;21.42;12.70;;;8.00;99.90;;;;;;5089060;28;20065;-66
2021/11/15 01:26:17;;;;;;;23.17;13.00;;;8.00;99.90;;;;;;5089348;28;20067;-67
2021/11/15 01:28:43;;;;;;;23.30;12.65;;;7.90;99.90;;;;;;5089947;28;20028;-67
2021/11/15 01:31:09;;;;;;;21.65;12.07;;;7.80;99.90;;;;;;5088687;28;20650;-67
2021/11/15 01:33:35;;;;;;;21.33;11.90;;;7.90;99.90;;;;;;5093992;28;20020;-67
2021/11/15 01:36:01;;;;;;;24.33;13.23;;;8.00;99.90;;;;;;5093954;28;20385;-67
2021/11/15 01:38:26;;;;;;;19.52;12.05;;;8.00;99.90;;;;;;5095378;28;20145;-67
2021/11/15 01:40:52;;;;;;;21.50;12.77;;;7.90;99.90;;;;;;5094126;28;20430;-67
2021/11/15 01:43:18;;;;;;;25.10;12.40;;;8.00;99.90;;;;;;5095037;28;20502;-66
2021/11/15 01:45:44;;;;;;;22.25;11.57;;;8.00;99.90;;;;;;5094748;28;20473;-66
2021/11/15 01:48:10;;;;;;;19.60;11.32;;;7.90;99.90;;;;;;5094412;28;20020;-67
2021/11/15 01:50:37;;;;;;;18.30;10.85;;;8.00;99.90;;;;;;5094370;28;20056;-66
2021/11/15 01:53:06;;;;;;;18.10;10.85;;;7.90;99.90;;;;;;5094251;28;20026;-66
2021/11/15 01:55:32;;;;;;;18.75;11.20;;;7.90;99.90;;;;;;5094724;28;20098;-66
2021/11/15 01:58:00;;;;;;;19.45;11.20;;;7.80;99.90;;;;;;5094040;28;20496;-67
2021/11/15 02:00:34;;;;;;;18.67;10.18;;;7.80;99.90;;;;;;5094545;28;20472;-67
2021/11/15 02:03:00;;;;;;;15.93;9.73;;;7.90;99.90;;;;;;5094072;28;20020;-67
2021/11/15 02:05:26;;;;;;;16.95;9.68;;;7.90;99.90;;;;;;5094267;28;20044;-67
2021/11/15 02:07:52;;;;;;;17.33;9.77;;;7.90;99.90;;;;;;5094076;28;20073;-66
2021/11/15 02:10:19;;;;;;;17.13;9.93;;;7.90;99.90;;;;;;5094361;28;20090;-67
2021/11/15 02:12:44;;;;;;;18.25;9.70;;;7.80;99.90;;;;;;5094561;28;20032;-66
2021/11/15 02:15:13;;;;;;;16.75;9.70;;;7.90;99.90;;;;;;5093254;28;20066;-67
2021/11/15 02:17:41;;;;;;;16.88;9.95;;;7.80;99.90;;;;;;5090786;28;20063;-67
2021/11/15 02:20:13;;;;;;;18.70;10.57;;;7.90;99.90;;;;;;5093543;28;20051;-66
2021/11/15 02:22:39;;;;;;;16.33;9.65;;;7.90;99.90;;;;;;5093944;28;20043;-67
2021/11/15 02:25:06;;;;;;;19.45;10.40;;;7.80;99.90;;;;;;5093356;28;20040;-67
2021/11/15 02:27:34;;;;;;;15.75;9.48;;;7.80;99.90;;;;;;5093185;28;20028;-66
2021/11/15 02:30:01;;;;;;;17.02;9.60;;;7.80;99.90;;;;;;5093453;28;20028;-67
2021/11/15 02:32:28;;;;;;;15.82;9.80;;;7.80;99.90;;;;;;5093573;28;20031;-67
2021/11/15 02:34:54;;;;;;;16.52;10.10;;;7.80;99.90;;;;;;5092834;28;20081;-67
2021/11/15 02:37:19;;;;;;;15.13;9.77;;;7.80;99.90;;;;;;5094318;28;20103;-67
2021/11/15 02:39:45;;;;;;;18.25;9.63;;;7.80;99.90;;;;;;5094228;28;20032;-67
2021/11/15 02:42:11;;;;;;;15.77;9.60;;;7.80;99.90;;;;;;5092901;28;20099;-66
2021/11/15 02:44:38;;;;;;;15.75;9.57;;;7.70;99.90;;;;;;5093676;28;20048;-67
2021/11/15 02:47:04;;;;;;;16.67;9.38;;;7.70;99.90;;;;;;5093069;28;20039;-67
2021/11/15 02:49:30;;;;;;;18.42;9.55;;;7.70;99.90;;;;;;5092725;28;20024;-67
2021/11/15 02:51:56;;;;;;;14.50;9.18;;;7.60;99.90;;;;;;5092455;28;20032;-67
2021/11/15 02:54:24;;;;;;;17.98;10.55;;;7.60;99.90;;;;;;5094020;28;20031;-67
2021/11/15 02:56:52;;;;;;;17.75;9.40;;;7.70;99.90;;;;;;5093706;28;20346;-67
2021/11/15 02:59:18;;;;;;;22.23;9.82;;;7.70;99.90;;;;;;5092967;28;20032;-67
2021/11/15 03:01:48;;;;;;;20.17;10.93;;;7.70;99.90;;;;;;5093389;28;20483;-67
2021/11/15 03:04:14;;;;;;;21.23;10.10;;;7.70;99.90;;;;;;5092470;28;20052;-66
2021/11/15 03:06:40;;;;;;;17.88;10.10;;;7.70;99.90;;;;;;5093438;28;20037;-67
2021/11/15 03:09:06;;;;;;;16.40;10.15;;;7.60;99.90;;;;;;5091643;28;20431;-66
2021/11/15 03:11:32;;;;;;;21.50;10.77;;;7.60;99.90;;;;;;5093402;28;20077;-66
2021/11/15 03:13:58;;;;;;;17.13;10.38;;;7.60;99.90;;;;;;5092646;28;20036;-67
2021/11/15 03:16:24;;;;;;;17.75;9.70;;;7.60;99.90;;;;;;5092790;28;20401;-66
2021/11/15 03:18:50;;;;;;;21.67;10.77;;;7.60;99.90;;;;;;5093150;28;20031;-67
2021/11/15 03:21:21;;;;;;;16.67;10.38;;;7.50;99.90;;;;;;5091998;28;20020;-66
2021/11/15 03:23:50;;;;;;;18.58;10.57;;;7.50;99.90;;;;;;5087307;28;20031;-66
2021/11/15 03:26:17;;;;;;;16.60;10.25;;;7.60;99.90;;;;;;5092204;28;20107;-66
2021/11/15 03:28:46;;;;;;;20.73;11.45;;;7.40;99.90;;;;;;5093161;28;20028;-66
2021/11/15 03:31:17;;;;;;;24.10;13.15;;;7.40;99.90;;;;;;5091884;28;20179;-66
2021/11/15 03:33:44;;;;;;;28.55;15.07;;;7.40;99.90;;;;;;5092561;28;20089;-66
2021/11/15 03:36:10;;;;;;;24.17;14.23;;;7.50;99.90;;;;;;5091585;28;20032;-67
2021/11/15 03:38:36;;;;;;;27.02;15.85;;;7.40;99.90;;;;;;5092594;28;20102;-67
2021/11/15 03:41:04;;;;;;;28.17;14.93;;;7.40;99.90;;;;;;5091971;28;20051;-67
2021/11/15 03:43:30;;;;;;;28.20;15.70;;;7.40;99.90;;;;;;5092254;28;20178;-67
2021/11/15 03:45:56;;;;;;;30.05;15.30;;;7.40;99.90;;;;;;5091743;28;20416;-67
2021/11/15 03:48:23;;;;;;;34.13;16.50;;;7.50;99.90;;;;;;5092213;28;20035;-67
2021/11/15 03:50:54;;;;;;;26.15;14.98;;;7.40;99.90;;;;;;5092481;28;20029;-67
2021/11/15 03:53:22;;;;;;;27.25;13.95;;;7.50;99.90;;;;;;5092081;28;20028;-67
2021/11/15 03:55:48;;;;;;;20.98;12.18;;;7.50;99.90;;;;;;5092270;28;20111;-67
2021/11/15 03:58:13;;;;;;;20.45;11.85;;;7.50;99.90;;;;;;5091267;28;20091;-67
2021/11/15 04:00:40;;;;;;;23.05;11.98;;;7.40;99.90;;;;;;5092655;28;20046;-67
2021/11/15 04:03:15;;;;;;;19.33;10.88;;;7.30;99.90;;;;;;5091337;28;20039;-67
2021/11/15 04:05:45;;;;;;;18.40;11.07;;;7.30;99.90;;;;;;5092687;28;20135;-66
2021/11/15 04:08:11;;;;;;;18.67;11.18;;;7.40;99.90;;;;;;5091044;28;20043;-66
2021/11/15 04:10:42;;;;;;;20.10;11.52;;;7.40;99.90;;;;;;5091937;28;20469;-66
2021/11/15 04:13:15;;;;;;;20.23;11.35;;;7.40;99.90;;;;;;5091369;28;20030;-67
2021/11/15 04:15:43;;;;;;;19.10;10.50;;;7.40;99.90;;;;;;5091972;28;20028;-67
2021/11/15 04:18:12;;;;;;;17.13;11.00;;;7.40;99.90;;;;;;5091300;28;20059;-66
2021/11/15 04:20:38;;;;;;;19.13;10.90;;;7.40;99.90;;;;;;5092301;28;20027;-67
2021/11/15 04:23:04;;;;;;;20.80;10.57;;;7.40;99.90;;;;;;5090879;28;20500;-67
2021/11/15 04:25:30;;;;;;;15.73;10.52;;;7.30;99.90;;;;;;5091885;28;20036;-66
2021/11/15 04:27:56;;;;;;;17.95;10.25;;;7.30;99.90;;;;;;5090969;28;20036;-67
2021/11/15 04:30:22;;;;;;;17.48;10.75;;;7.30;99.90;;;;;;5091443;28;20618;-66
2021/11/15 04:32:47;;;;;;;18.80;11.27;;;7.30;99.90;;;;;;5091658;28;20119;-66
2021/11/15 04:35:18;;;;;;;18.98;11.60;;;7.30;99.90;;;;;;5090975;28;20028;-67
2021/11/15 04:37:43;;;;;;;;;;;7.20;99.90;;;;;;5092035;28;20488;-67
2021/11/15 04:40:10;;;;;;;16.77;10.50;;;7.30;99.90;;;;;;5091405;28;19904;-67
2021/11/15 04:42:36;;;;;;;18.58;10.82;;;7.20;99.90;;;;;;5091507;28;20043;-67
2021/11/15 04:45:03;;;;;;;17.92;10.88;;;7.20;99.90;;;;;;5090356;28;20066;-67
2021/11/15 04:47:28;;;;;;;17.98;10.57;;;7.30;99.90;;;;;;5092000;28;20028;-67
2021/11/15 04:49:58;;;;;;;18.75;10.63;;;7.30;99.90;;;;;;5091598;28;20498;-66
2021/11/15 04:52:24;;;;;;;16.02;9.70;;;7.30;99.90;;;;;;5091906;28;20028;-66
2021/11/15 04:54:50;;;;;;;17.88;10.73;;;7.30;99.90;;;;;;5091632;28;20032;-67
2021/11/15 04:57:18;;;;;;;19.73;11.48;;;7.30;99.90;;;;;;5091009;28;20028;-67
2021/11/15 04:59:45;;;;;;;18.00;10.18;;;7.30;99.90;;;;;;5091871;28;20063;-66
2021/11/15 05:02:11;;;;;;;19.90;10.15;;;7.30;99.90;;;;;;5090635;28;20043;-67
2021/11/15 05:04:36;;;;;;;16.23;10.18;;;7.30;99.90;;;;;;5091685;28;20028;-66
2021/11/15 05:07:02;;;;;;;17.55;11.00;;;7.30;99.90;;;;;;5092446;28;20120;-66
2021/11/15 05:09:28;;;;;;;15.32;10.02;;;7.30;99.90;;;;;;5095147;28;20119;-67
2021/11/15 05:11:54;;;;;;;18.45;11.00;;;7.20;99.90;;;;;;5095913;28;20028;-66
2021/11/15 05:14:19;;;;;;;18.02;10.98;;;7.20;99.90;;;;;;5094655;28;20389;-67
2021/11/15 05:16:45;;;;;;;19.33;10.93;;;7.20;99.90;;;;;;5095193;28;20028;-67
2021/11/15 05:19:11;;;;;;;20.15;11.25;;;7.20;99.90;;;;;;5094689;28;20434;-66
2021/11/15 05:21:37;;;;;;;19.30;12.20;;;7.20;99.90;;;;;;5095484;28;20032;-67
2021/11/15 05:24:04;;;;;;;21.90;10.63;;;7.20;99.90;;;;;;5094366;28;20496;-67
2021/11/15 05:26:30;;;;;;;20.67;10.75;;;7.30;99.90;;;;;;5095557;28;20036;-67
2021/11/15 05:28:57;;;;;;;18.70;11.43;;;7.20;99.90;;;;;;5094658;28;20024;-67
2021/11/15 05:31:24;;;;;;;18.48;11.07;;;7.20;99.90;;;;;;5095032;28;20032;-67
2021/11/15 05:33:49;;;;;;;20.25;11.27;;;7.20;99.90;;;;;;5094526;28;20024;-67
2021/11/15 05:36:15;;;;;;;17.02;10.85;;;7.20;99.90;;;;;;5094730;28;20538;-67
2021/11/15 05:38:41;;;;;;;17.52;10.02;;;7.20;99.90;;;;;;5095207;28;20028;-67
2021/11/15 05:41:07;;;;;;;21.13;10.98;;;7.10;99.90;;;;;;5094229;28;20031;-67
2021/11/15 05:43:33;;;;;;;20.48;11.15;;;7.20;99.90;;;;;;5095163;28;20025;-66
2021/11/15 05:45:59;;;;;;;16.85;10.60;;;7.10;99.90;;;;;;5094366;28;20446;-67
2021/11/15 05:48:25;;;;;;;23.10;11.70;;;7.10;99.90;;;;;;5094742;28;20032;-67
2021/11/15 05:50:51;;;;;;;23.77;12.75;;;7.10;99.90;;;;;;5094883;28;20028;-67
2021/11/15 05:53:17;;;;;;;21.20;11.98;;;7.00;99.90;;;;;;5094301;28;20121;-67
2021/11/15 05:55:44;;;;;;;23.00;12.32;;;7.00;99.90;;;;;;5094930;28;20522;-67
2021/11/15 05:58:10;;;;;;;25.25;13.32;;;7.00;99.90;;;;;;5094172;28;20480;-67
2021/11/15 06:00:37;;;;;;;25.70;12.38;;;7.10;99.90;;;;;;5094846;28;20024;-67
2021/11/15 06:03:03;;;;;;;22.25;12.45;;;7.10;99.90;;;;;;5093785;28;20028;-67
2021/11/15 06:05:29;;;;;;;31.05;13.52;;;7.10;99.90;;;;;;5094382;28;20028;-67
2021/11/15 06:07:56;;;;;;;25.00;13.70;;;7.10;99.90;;;;;;5093465;28;20016;-67
2021/11/15 06:10:22;;;;;;;23.20;12.60;;;7.00;99.90;;;;;;5092425;28;20036;-67
2021/11/15 06:12:48;;;;;;;21.23;11.68;;;7.00;99.90;;;;;;5094070;28;20047;-67
2021/11/15 06:15:16;;;;;;;20.23;11.88;;;7.10;99.90;;;;;;5093918;28;20048;-67
2021/11/15 06:17:42;;;;;;;23.48;11.73;;;7.10;99.90;;;;;;5093617;28;20024;-67
2021/11/15 06:20:10;;;;;;;24.67;12.60;;;7.20;99.90;;;;;;5094043;28;20047;-67
2021/11/15 06:22:38;;;;;;;20.40;12.32;;;7.20;99.90;;;;;;5094825;28;20024;-67
2021/11/15 06:25:06;;;;;;;21.70;12.07;;;7.10;99.90;;;;;;5094219;28;20040;-67
2021/11/15 06:27:32;;;;;;;20.45;12.07;;;7.10;99.90;;;;;;5094682;28;20047;-67
2021/11/15 06:29:58;;;;;;;22.50;11.80;;;7.10;99.90;;;;;;5094214;28;20024;-67
2021/11/15 06:32:25;;;;;;;21.48;11.68;;;7.10;99.90;;;;;;5094221;28;20103;-67
2021/11/15 06:34:51;;;;;;;25.75;11.80;;;7.00;99.90;;;;;;5093932;28;20024;-69
2021/11/15 06:37:16;;;;;;;21.13;11.02;;;7.00;99.90;;;;;;5091575;28;20035;-67
2021/11/15 06:39:43;;;;;;;23.48;12.10;;;6.90;99.90;;;;;;5094179;28;20032;-67
2021/11/15 06:42:08;;;;;;;21.58;12.18;;;6.90;99.90;;;;;;5092946;28;20087;-67
2021/11/15 06:44:35;;;;;;;20.92;11.82;;;7.00;99.90;;;;;;5093785;28;20496;-67
2021/11/15 06:47:01;;;;;;;21.17;11.93;;;7.00;99.90;;;;;;5093270;28;20086;-67
2021/11/15 06:49:27;;;;;;;20.42;11.38;;;7.20;99.90;;;;;;5093567;28;20031;-70
2021/11/15 06:51:53;;;;;;;20.30;11.55;;;7.10;99.90;;;;;;5093609;28;20106;-71
2021/11/15 06:54:22;;;;;;;20.70;12.45;;;7.10;99.90;;;;;;5092659;28;20652;-68
2021/11/15 06:56:48;;;;;;;24.27;11.88;;;7.10;99.90;;;;;;5093933;28;20028;-71
2021/11/15 06:59:14;;;;;;;22.27;11.60;;;7.10;99.90;;;;;;5093422;28;20039;-73
2021/11/15 07:01:40;;;;;;;24.50;12.63;;;7.00;99.90;;;;;;5093916;28;20107;-68
2021/11/15 07:04:08;;;;;;;23.75;11.85;;;7.10;99.90;;;;;;5093261;28;20362;-67
2021/11/15 07:06:34;;;;;;;21.40;12.20;;;7.20;99.90;;;;;;5093951;28;20062;-67
2021/11/15 07:09:00;;;;;;;23.33;12.50;;;7.20;99.90;;;;;;5092793;28;20103;-67
2021/11/15 07:11:27;;;;;;;22.55;12.95;;;7.20;99.90;;;;;;5093652;28;20509;-68
2021/11/15 07:13:52;;;;;;;25.27;12.88;;;7.10;99.90;;;;;;5094026;28;20023;-68
2021/11/15 07:16:18;;;;;;;23.95;13.13;;;7.10;99.90;;;;;;5092892;28;20044;-67
2021/11/15 07:18:46;;;;;;;23.60;12.73;;;7.20;99.90;;;;;;5093080;28;20028;-68
2021/11/15 07:21:12;;;;;;;24.20;13.43;;;7.10;99.90;;;;;;5092808;28;20016;-68
2021/11/15 07:23:38;;;;;;;24.35;13.52;;;7.10;99.90;;;;;;5087163;28;20040;-67
2021/11/15 07:26:04;;;;;;;25.33;13.57;;;7.10;99.90;;;;;;5112719;28;20426;-68
2021/11/15 07:28:31;;;;;;;24.10;12.32;;;7.10;99.90;;;;;;5114269;28;20054;-68
2021/11/15 07:30:57;;;;;;;25.88;13.32;;;7.10;99.90;;;;;;5113157;28;20026;-68
2021/11/15 07:33:25;;;;;;;21.70;12.77;;;7.10;99.90;;;;;;5112951;28;20023;-71
2021/11/15 07:35:51;;;;;;;22.73;12.18;;;7.10;99.90;;;;;;5113528;28;20027;-68
2021/11/15 07:38:17;;;;;;;21.42;12.38;;;7.10;99.90;;;;;;5113076;28;20038;-68
2021/11/15 07:40:43;;;;;;;18.90;10.80;;;7.10;99.90;;;;;;5113499;28;20518;-65
2021/11/15 07:43:09;;;;;;;24.75;13.95;;;7.10;99.90;;;;;;5111976;28;20532;-66
2021/11/15 07:45:35;;;;;;;23.73;12.13;;;7.10;99.90;;;;;;5113032;28;20135;-66
2021/11/15 07:48:01;;;;;;;22.13;13.63;;;7.10;99.90;;;;;;5112856;28;20026;-67
2021/11/15 07:50:27;;;;;;;22.50;12.75;;;7.10;99.90;;;;;;5113279;28;20104;-67
2021/11/15 07:52:53;;;;;;;23.27;12.52;;;7.00;99.90;;;;;;5117918;28;20028;-67
2021/11/15 07:55:19;;;;;;;22.00;12.73;;;7.10;99.90;;;;;;5112291;28;20043;-67
2021/11/15 07:57:45;;;;;;;22.83;12.93;;;7.00;99.90;;;;;;5089697;28;20377;-67
2021/11/15 08:00:14;;;;;;;20.27;12.57;;;7.10;99.90;;;;;;5072323;28;20021;-68
2021/11/15 08:02:41;;;;;;;21.90;12.87;;;7.10;99.90;;;;;;5078810;28;20415;-67
2021/11/15 08:05:09;;;;;;;21.75;12.38;;;7.10;99.90;;;;;;5070483;28;20029;-67
2021/11/15 08:07:35;;;;;;;25.20;13.02;;;7.10;99.90;;;;;;5072135;28;20476;-67
2021/11/15 08:10:03;;;;;;;21.60;12.60;;;7.10;99.90;;;;;;5072400;28;20142;-67
2021/11/15 08:12:36;;;;;;;21.90;12.32;;;7.10;99.90;;;;;;5072176;28;20039;-67
2021/11/15 08:15:06;;;;;;;20.92;12.43;;;7.10;99.90;;;;;;5072032;28;20068;-67
2021/11/15 08:17:32;;;;;;;23.45;13.10;;;7.10;99.90;;;;;;5072764;28;20035;-67
2021/11/15 08:19:58;;;;;;;21.77;12.48;;;7.10;99.90;;;;;;5072484;28;20032;-67
2021/11/15 08:22:23;;;;;;;25.40;12.77;;;7.10;99.90;;;;;;5080488;28;20454;-67
2021/11/15 08:25:14;;;;;;;19.23;12.00;;;7.10;99.90;;;;;;5092625;28;20039;-67
2021/11/15 08:27:40;;;;;;;22.75;12.65;;;7.10;99.90;;;;;;5092131;28;20469;-67
2021/11/15 08:30:06;;;;;;;23.45;13.05;;;7.10;99.90;;;;;;5091870;28;20040;-65
2021/11/15 08:32:31;;;;;;;22.40;12.27;;;7.10;99.90;;;;;;5092471;28;20024;-66
2021/11/15 08:34:59;;;;;;;27.83;13.60;;;7.10;99.90;;;;;;5092453;28;20477;-66
2021/11/15 08:37:25;;;;;;;25.27;12.63;;;7.10;99.90;;;;;;5091825;28;20028;-66
2021/11/15 08:39:51;;;;;;;21.98;12.57;;;7.10;99.90;;;;;;5092685;28;20063;-66
2021/11/15 08:42:16;;;;;;;24.23;13.18;;;7.20;99.90;;;;;;5091542;28;20060;-66
2021/11/15 08:44:51;;;;;;;23.95;12.77;;;7.30;99.90;;;;;;5092103;28;20058;-66
2021/11/15 08:47:18;;;;;;;21.50;11.50;;;7.30;99.90;;;;;;5091537;28;20077;-66
2021/11/15 08:49:44;;;;;;;26.85;14.05;;;7.30;99.90;;;;;;5092608;28;20526;-67
2021/11/15 08:52:09;;;;;;;22.08;11.77;;;7.30;99.90;;;;;;5091445;28;20032;-66
2021/11/15 08:54:36;;;;;;;21.90;12.60;;;7.30;99.90;;;;;;5092219;28;20484;-66
2021/11/15 08:57:04;;;;;;;23.52;11.98;;;7.30;99.90;;;;;;5092156;28;20058;-66
2021/11/15 08:59:31;;;;;;;25.33;13.05;;;7.30;99.90;;;;;;5092177;28;20024;-66
2021/11/15 09:01:57;;;;;;;24.25;13.27;;;7.30;99.90;;;;;;5092020;28;20098;-66
2021/11/15 09:04:23;;;;;;;20.48;12.20;;;7.30;99.90;;;;;;5091557;28;20059;-66
2021/11/15 09:06:49;;;;;;;23.45;12.23;;;7.40;99.90;;;;;;5091709;28;20453;-66
2021/11/15 09:09:16;;;;;;;24.50;13.63;;;7.40;99.90;;;;;;5091367;28;20063;-67
2021/11/15 09:11:48;;;;;;;22.55;12.35;;;7.40;99.90;;;;;;5091817;28;20024;-67
2021/11/15 09:14:15;;;;;;;24.45;12.70;;;7.50;99.90;;;;;;5091189;28;20425;-67
2021/11/15 09:16:42;;;;;;;22.70;11.75;;;7.50;99.90;;;;;;5091690;28;20529;-68
2021/11/15 09:19:09;;;;;;;21.33;11.57;;;7.60;99.90;;;;;;5091460;28;20031;-67
2021/11/15 09:21:36;;;;;;;20.23;11.75;;;7.60;99.90;;;;;;5091856;28;20153;-67
2021/11/15 09:24:03;;;;;;;21.40;12.43;;;7.60;99.90;;;;;;5092224;28;20020;-67
2021/11/15 09:26:28;;;;;;;21.65;12.85;;;7.60;99.90;;;;;;5091953;28;20040;-67
2021/11/15 09:28:56;;;;;;;21.15;13.30;;;7.60;99.90;;;;;;5091577;28;20405;-68
2021/11/15 09:31:23;;;;;;;23.65;11.98;;;7.60;99.90;;;;;;5091248;28;20448;-68
2021/11/15 09:33:50;;;;;;;21.35;12.07;;;7.60;99.90;;;;;;5092019;28;20058;-68
2021/11/15 09:36:16;;;;;;;25.58;12.50;;;7.60;99.90;;;;;;5091330;28;20445;-67
2021/11/15 09:38:44;;;;;;;22.42;12.95;;;7.60;99.90;;;;;;5091733;28;20112;-67
2021/11/15 09:41:11;;;;;;;20.33;11.80;;;7.70;99.90;;;;;;5091299;28;20468;-68
2021/11/15 09:43:37;;;;;;;21.35;12.00;;;7.70;99.90;;;;;;5091913;28;20103;-68
2021/11/15 09:46:11;;;;;;;19.23;11.77;;;7.70;99.90;;;;;;5091169;28;20594;-67
2021/11/15 09:48:46;;;;;;;18.13;10.77;;;7.70;99.90;;;;;;5091701;28;20530;-68
2021/11/15 09:51:12;;;;;;;19.77;11.88;;;7.70;99.90;;;;;;5091271;28;20047;-68
2021/11/15 09:53:38;;;;;;;19.70;10.60;;;7.80;99.90;;;;;;5094123;28;20067;-68
2021/11/15 09:56:10;;;;;;;24.25;12.90;;;7.80;99.90;;;;;;5095284;28;20036;-67
2021/11/15 09:58:37;;;;;;;21.10;12.50;;;7.90;99.90;;;;;;5095282;28;20107;-68
2021/11/15 10:01:04;;;;;;;21.15;11.45;;;7.80;99.90;;;;;;5095311;28;20535;-67
2021/11/15 10:03:32;;;;;;;26.30;12.95;;;7.80;99.90;;;;;;5095302;28;20099;-68
2021/11/15 10:05:58;;;;;;;22.88;12.57;;;7.90;99.90;;;;;;5095150;28;20032;-67
2021/11/15 10:08:23;;;;;;;24.10;13.40;;;7.80;99.90;;;;;;5094258;28;20066;-67
2021/11/15 10:10:57;;;;;;;20.90;11.60;;;7.80;99.90;;;;;;5095559;28;20461;-67
2021/11/15 10:13:29;;;;;;;21.20;11.35;;;7.90;99.90;;;;;;5094089;28;20477;-67
2021/11/15 10:16:09;;;;;;;17.45;11.00;;;7.80;99.90;;;;;;5095087;28;20027;-67
2021/11/15 10:18:57;;;;;;;19.98;11.32;;;7.80;99.90;;;;;;5095076;28;20173;-67
2021/11/15 10:21:25;;;;;;;17.73;10.85;;;7.80;99.90;;;;;;5094361;28;20032;-69
2021/11/15 10:24:13;;;;;;;19.42;12.30;;;7.80;99.90;;;;;;5094795;28;20039;-66
2021/11/15 10:26:48;;;;;;;19.95;11.55;;;7.80;99.90;;;;;;5094789;28;20040;-66
2021/11/15 10:29:17;;;;;;;19.75;12.00;;;7.80;99.90;;;;;;5094138;28;20099;-66
2021/11/15 10:31:54;;;;;;;26.98;13.27;;;7.80;99.90;;;;;;5094871;28;20408;-67
2021/11/15 10:34:22;;;;;;;20.45;11.57;;;7.90;99.90;;;;;;5094033;28;20021;-67
2021/11/15 10:36:56;;;;;;;21.45;11.95;;;7.90;99.90;;;;;;5094395;28;20036;-66
2021/11/15 10:39:44;;;;;;;21.58;11.88;;;7.80;99.90;;;;;;5093749;28;20130;-67
2021/11/15 10:42:17;;;;;;;18.90;12.35;;;7.80;99.90;;;;;;5093994;28;20031;-67
2021/11/15 10:45:24;;;;;;;21.90;12.23;;;7.80;99.90;;;;;;5094113;28;20070;-66
2021/11/15 10:47:57;;;;;;;23.73;12.85;;;7.80;99.90;;;;;;5031743;28;20029;-66
2021/11/15 10:50:27;;;;;;;21.23;12.82;;;7.90;99.90;;;;;;5031165;28;20036;-65
2021/11/15 10:53:12;;;;;;;20.42;12.50;;;8.00;99.90;;;;;;5031622;28;20398;-65
2021/11/15 10:55:41;;;;;;;25.48;12.70;;;8.00;99.90;;;;;;5031961;28;20029;-66
2021/11/15 10:58:18;;;;;;;22.88;12.50;;;8.10;99.90;;;;;;5031206;28;20425;-65
2021/11/15 11:00:57;;;;;;;20.75;12.88;;;8.00;99.90;;;;;;5031527;28;20032;-65
2021/11/15 11:03:26;;;;;;;22.42;12.70;;;8.00;99.90;;;;;;5030934;28;20029;-65
2021/11/15 11:05:55;;;;;;;21.02;12.35;;;8.00;99.90;;;;;;5031365;28;20069;-65
2021/11/15 11:08:29;;;;;;;25.00;13.70;;;7.90;99.90;;;;;;5030647;28;20037;-66
2021/11/15 11:11:26;;;;;;;22.02;13.68;;;7.90;99.90;;;;;;5031403;28;20040;-65
2021/11/15 11:14:03;;;;;;;22.40;13.98;;;7.90;99.90;;;;;;5030516;28;20426;-65
2021/11/15 11:16:53;;;;;;;22.35;13.82;;;7.90;99.90;;;;;;5030486;28;20576;-66
2021/11/15 11:19:36;;;;;;;23.20;14.00;;;8.00;99.90;;;;;;5081710;28;20094;-66
2021/11/15 11:27:33;;;;;;;23.15;14.35;;;8.00;99.90;;;;;;5093159;28;20024;-67
2021/11/15 11:29:59;;;;;;;23.00;14.27;;;8.00;99.90;;;;;;5093526;28;20480;-66
2021/11/15 11:32:27;;;;;;;25.90;14.77;;;7.90;99.90;;;;;;5092907;28;20036;-66
2021/11/15 11:34:56;;;;;;;25.83;15.25;;;8.00;99.90;;;;;;5093614;28;20028;-67
2021/11/15 11:37:27;;;;;;;22.27;14.20;;;8.00;99.90;;;;;;5092644;28;20492;-66
2021/11/15 11:39:53;;;;;;;27.80;15.02;;;7.90;99.90;;;;;;5093334;28;20254;-67
2021/11/15 11:42:21;;;;;;;21.38;14.13;;;7.90;99.90;;;;;;5092503;28;20040;-67
2021/11/15 11:44:47;;;;;;;23.23;14.70;;;7.90;99.90;;;;;;5093382;28;20094;-66
2021/11/15 11:47:16;;;;;;;22.40;14.05;;;7.90;99.90;;;;;;5092677;28;20034;-67
2021/11/15 11:49:43;;;;;;;21.35;13.98;;;7.90;99.90;;;;;;5093140;28;20032;-67
2021/11/15 11:52:13;;;;;;;23.13;14.52;;;7.80;99.90;;;;;;5092942;28;20461;-66
2021/11/15 11:54:43;;;;;;;;;;;7.80;99.90;;;;;;5093255;28;20386;-67
2021/11/15 11:57:11;;;;;;;24.40;14.77;;;7.90;99.90;;;;;;5092923;28;19915;-66
2021/11/15 12:00:04;;;;;;;24.60;14.70;;;7.90;99.90;;;;;;5092766;28;20101;-67
2021/11/15 12:02:32;;;;;;;27.95;14.73;;;7.80;99.90;;;;;;5092089;28;20032;-68
2021/11/15 12:05:04;;;;;;;23.70;13.75;;;7.80;99.90;;;;;;5092738;28;20028;-68
2021/11/15 12:07:38;;;;;;;25.02;15.85;;;7.80;99.90;;;;;;5092113;28;20036;-66
2021/11/15 12:10:09;;;;;;;29.17;16.02;;;7.80;99.90;;;;;;5092726;28;20024;-69
2021/11/15 12:12:53;;;;;;;25.55;15.25;;;7.80;99.90;;;;;;5092440;28;20149;-67
2021/11/15 12:15:41;;;;;;;28.80;15.25;;;7.70;99.90;;;;;;5091681;28;20051;-67
2021/11/15 12:18:25;;;;;;;25.85;15.43;;;7.70;99.90;;;;;;5092642;28;20051;-68
2021/11/15 12:21:03;;;;;;;29.95;17.45;;;7.70;99.90;;;;;;5092653;28;20024;-67
2021/11/15 12:23:34;;;;;;;29.85;17.00;;;7.70;99.90;;;;;;5092195;28;20055;-68
2021/11/15 12:26:01;;;;;;;27.77;17.05;;;7.70;99.90;;;;;;5092300;28;20429;-68
2021/11/15 12:28:29;;;;;;;27.35;16.98;;;7.70;99.90;;;;;;5092038;28;20123;-67
2021/11/15 12:30:57;;;;;;;28.02;16.60;;;7.70;99.90;;;;;;5092509;28;20028;-67
2021/11/15 12:33:35;;;;;;;26.45;15.77;;;7.70;99.90;;;;;;5091807;28;20380;-67
2021/11/15 12:36:08;;;;;;;29.85;16.30;;;7.70;99.90;;;;;;5092388;28;20028;-67
2021/11/15 12:38:57;;;;;;;31.02;16.88;;;7.70;99.90;;;;;;5091776;28;20052;-68
2021/11/15 12:41:28;;;;;;;29.67;15.45;;;7.70;99.90;;;;;;5091863;28;20028;-67
2021/11/15 12:44:06;;;;;;;27.90;16.38;;;7.70;99.90;;;;;;5092381;28;20480;-67
2021/11/15 12:46:44;;;;;;;28.65;16.13;;;7.70;99.90;;;;;;5091845;28;20511;-67
2021/11/15 12:49:21;;;;;;;24.92;16.05;;;7.70;99.90;;;;;;5092160;28;20020;-67